sensor_id;sensor_type;location;lat;lon;timestamp;P1;durP1;ratioP1;P2;durP2;ratioP2
42124;SDS011;27787;44.594;11.046;2022-12-07T00:03:54;57.00;;;21.80;;
42124;SDS011;27787;44.594;11.046;2022-12-07T00:06:50;57.78;;;19.92;;
42124;SDS011;27787;44.594;11.046;2022-12-07T00:09:36;46.70;;;19.00;;
42124;SDS011;27787;44.594;11.046;2022-12-07T00:12:20;54.97;;;19.77;;
42124;SDS011;27787;44.594;11.046;2022-12-07T00:15:04;56.47;;;21.00;;
42124;SDS011;27787;44.594;11.046;2022-12-07T00:17:49;60.85;;;21.60;;
42124;SDS011;27787;44.594;11.046;2022-12-07T00:20:34;54.10;;;20.67;;
42124;SDS011;27787;44.594;11.046;2022-12-07T00:23:18;60.15;;;21.00;;
42124;SDS011;27787;44.594;11.046;2022-12-07T00:26:03;51.33;;;20.30;;
42124;SDS011;27787;44.594;11.046;2022-12-07T00:28:55;55.10;;;21.02;;
42124;SDS011;27787;44.594;11.046;2022-12-07T00:31:41;59.80;;;20.95;;
42124;SDS011;27787;44.594;11.046;2022-12-07T00:34:25;57.72;;;20.00;;
42124;SDS011;27787;44.594;11.046;2022-12-07T00:37:10;58.53;;;21.77;;
42124;SDS011;27787;44.594;11.046;2022-12-07T00:42:40;55.83;;;19.80;;
42124;SDS011;27787;44.594;11.046;2022-12-07T00:45:24;62.15;;;20.73;;
42124;SDS011;27787;44.594;11.046;2022-12-07T00:48:08;54.95;;;20.13;;
42124;SDS011;27787;44.594;11.046;2022-12-07T00:50:52;64.32;;;21.77;;
42124;SDS011;27787;44.594;11.046;2022-12-07T00:53:37;55.30;;;22.08;;
42124;SDS011;27787;44.594;11.046;2022-12-07T00:56:23;60.85;;;21.73;;
42124;SDS011;27787;44.594;11.046;2022-12-07T00:59:10;53.88;;;21.05;;
42124;SDS011;27787;44.594;11.046;2022-12-07T01:01:57;63.70;;;21.80;;
42124;SDS011;27787;44.594;11.046;2022-12-07T01:04:41;60.05;;;21.80;;
42124;SDS011;27787;44.594;11.046;2022-12-07T01:07:25;53.05;;;20.98;;
42124;SDS011;27787;44.594;11.046;2022-12-07T01:10:10;64.60;;;21.85;;
42124;SDS011;27787;44.594;11.046;2022-12-07T01:12:54;52.65;;;20.70;;
42124;SDS011;27787;44.594;11.046;2022-12-07T01:15:42;51.58;;;20.27;;
42124;SDS011;27787;44.594;11.046;2022-12-07T01:18:28;52.10;;;19.98;;
42124;SDS011;27787;44.594;11.046;2022-12-07T01:21:18;54.25;;;21.10;;
42124;SDS011;27787;44.594;11.046;2022-12-07T01:24:05;51.47;;;20.45;;
42124;SDS011;27787;44.594;11.046;2022-12-07T01:26:52;50.63;;;21.00;;
42124;SDS011;27787;44.594;11.046;2022-12-07T01:29:37;56.55;;;21.08;;
42124;SDS011;27787;44.594;11.046;2022-12-07T01:32:22;55.05;;;21.42;;
42124;SDS011;27787;44.594;11.046;2022-12-07T01:35:06;54.25;;;21.17;;
42124;SDS011;27787;44.594;11.046;2022-12-07T01:37:51;59.55;;;22.02;;
42124;SDS011;27787;44.594;11.046;2022-12-07T01:40:35;59.25;;;21.35;;
42124;SDS011;27787;44.594;11.046;2022-12-07T01:43:19;57.42;;;23.67;;
42124;SDS011;27787;44.594;11.046;2022-12-07T01:46:04;74.17;;;25.73;;
42124;SDS011;27787;44.594;11.046;2022-12-07T01:48:48;70.13;;;27.08;;
42124;SDS011;27787;44.594;11.046;2022-12-07T01:51:32;70.07;;;24.88;;
42124;SDS011;27787;44.594;11.046;2022-12-07T01:54:18;55.05;;;21.27;;
42124;SDS011;27787;44.594;11.046;2022-12-07T01:57:04;60.13;;;23.25;;
42124;SDS011;27787;44.594;11.046;2022-12-07T01:59:51;63.80;;;23.25;;
42124;SDS011;27787;44.594;11.046;2022-12-07T02:02:39;54.33;;;20.02;;
42124;SDS011;27787;44.594;11.046;2022-12-07T02:05:37;56.13;;;21.02;;
42124;SDS011;27787;44.594;11.046;2022-12-07T02:08:24;53.20;;;19.95;;
42124;SDS011;27787;44.594;11.046;2022-12-07T02:11:09;49.45;;;20.10;;
42124;SDS011;27787;44.594;11.046;2022-12-07T02:13:54;54.77;;;20.87;;
42124;SDS011;27787;44.594;11.046;2022-12-07T02:26:13;49.78;;;21.08;;
42124;SDS011;27787;44.594;11.046;2022-12-07T02:35:01;56.45;;;20.98;;
42124;SDS011;27787;44.594;11.046;2022-12-07T02:37:58;59.35;;;20.98;;
42124;SDS011;27787;44.594;11.046;2022-12-07T02:40:58;56.50;;;21.25;;
42124;SDS011;27787;44.594;11.046;2022-12-07T02:43:50;52.10;;;20.63;;
42124;SDS011;27787;44.594;11.046;2022-12-07T02:46:39;52.13;;;21.23;;
42124;SDS011;27787;44.594;11.046;2022-12-07T02:49:27;53.10;;;20.98;;
42124;SDS011;27787;44.594;11.046;2022-12-07T02:52:12;48.83;;;20.25;;
42124;SDS011;27787;44.594;11.046;2022-12-07T02:54:57;56.45;;;21.27;;
42124;SDS011;27787;44.594;11.046;2022-12-07T02:57:45;57.70;;;19.85;;
42124;SDS011;27787;44.594;11.046;2022-12-07T03:01:05;52.20;;;19.77;;
42124;SDS011;27787;44.594;11.046;2022-12-07T03:03:53;55.17;;;20.60;;
42124;SDS011;27787;44.594;11.046;2022-12-07T03:10:06;67.68;;;22.30;;
42124;SDS011;27787;44.594;11.046;2022-12-07T03:16:16;56.88;;;21.75;;
42124;SDS011;27787;44.594;11.046;2022-12-07T03:19:22;52.30;;;23.10;;
42124;SDS011;27787;44.594;11.046;2022-12-07T03:22:10;62.08;;;22.77;;
42124;SDS011;27787;44.594;11.046;2022-12-07T03:24:58;67.82;;;23.48;;
42124;SDS011;27787;44.594;11.046;2022-12-07T03:30:44;55.92;;;22.15;;
42124;SDS011;27787;44.594;11.046;2022-12-07T03:33:36;60.33;;;23.95;;
42124;SDS011;27787;44.594;11.046;2022-12-07T03:39:39;61.13;;;22.38;;
42124;SDS011;27787;44.594;11.046;2022-12-07T03:42:29;67.80;;;24.15;;
42124;SDS011;27787;44.594;11.046;2022-12-07T03:45:14;69.78;;;24.27;;
42124;SDS011;27787;44.594;11.046;2022-12-07T03:48:02;67.85;;;24.92;;
42124;SDS011;27787;44.594;11.046;2022-12-07T03:50:54;67.30;;;25.05;;
42124;SDS011;27787;44.594;11.046;2022-12-07T03:53:47;68.40;;;24.55;;
42124;SDS011;27787;44.594;11.046;2022-12-07T03:56:41;63.25;;;25.58;;
42124;SDS011;27787;44.594;11.046;2022-12-07T03:59:27;75.85;;;26.17;;
42124;SDS011;27787;44.594;11.046;2022-12-07T04:02:13;73.05;;;27.00;;
42124;SDS011;27787;44.594;11.046;2022-12-07T04:04:58;71.37;;;26.63;;
42124;SDS011;27787;44.594;11.046;2022-12-07T04:07:42;74.45;;;27.52;;
42124;SDS011;27787;44.594;11.046;2022-12-07T04:10:27;73.72;;;26.77;;
42124;SDS011;27787;44.594;11.046;2022-12-07T04:13:11;65.15;;;26.20;;
42124;SDS011;27787;44.594;11.046;2022-12-07T04:15:56;75.15;;;25.98;;
42124;SDS011;27787;44.594;11.046;2022-12-07T04:18:39;74.03;;;27.98;;
42124;SDS011;27787;44.594;11.046;2022-12-07T04:21:24;73.68;;;25.60;;
42124;SDS011;27787;44.594;11.046;2022-12-07T04:24:08;72.20;;;25.88;;
42124;SDS011;27787;44.594;11.046;2022-12-07T04:26:53;68.15;;;24.17;;
42124;SDS011;27787;44.594;11.046;2022-12-07T04:29:37;73.40;;;25.90;;
42124;SDS011;27787;44.594;11.046;2022-12-07T04:32:22;74.22;;;24.90;;
42124;SDS011;27787;44.594;11.046;2022-12-07T04:35:07;75.28;;;26.30;;
42124;SDS011;27787;44.594;11.046;2022-12-07T04:37:52;74.47;;;25.13;;
42124;SDS011;27787;44.594;11.046;2022-12-07T04:40:36;66.63;;;25.00;;
42124;SDS011;27787;44.594;11.046;2022-12-07T04:43:21;60.15;;;25.45;;
42124;SDS011;27787;44.594;11.046;2022-12-07T04:46:04;70.38;;;25.90;;
42124;SDS011;27787;44.594;11.046;2022-12-07T04:48:49;73.45;;;26.05;;
42124;SDS011;27787;44.594;11.046;2022-12-07T04:51:34;71.17;;;25.17;;
42124;SDS011;27787;44.594;11.046;2022-12-07T04:54:18;69.72;;;26.05;;
42124;SDS011;27787;44.594;11.046;2022-12-07T04:57:02;70.40;;;25.45;;
42124;SDS011;27787;44.594;11.046;2022-12-07T04:59:47;67.32;;;25.55;;
42124;SDS011;27787;44.594;11.046;2022-12-07T05:02:31;64.20;;;23.60;;
42124;SDS011;27787;44.594;11.046;2022-12-07T05:05:15;65.07;;;24.05;;
42124;SDS011;27787;44.594;11.046;2022-12-07T05:07:59;64.03;;;24.85;;
42124;SDS011;27787;44.594;11.046;2022-12-07T05:10:44;64.28;;;24.52;;
42124;SDS011;27787;44.594;11.046;2022-12-07T05:13:28;60.17;;;24.50;;
42124;SDS011;27787;44.594;11.046;2022-12-07T05:16:12;68.38;;;24.08;;
42124;SDS011;27787;44.594;11.046;2022-12-07T05:18:57;56.20;;;23.27;;
42124;SDS011;27787;44.594;11.046;2022-12-07T05:21:41;65.97;;;24.38;;
42124;SDS011;27787;44.594;11.046;2022-12-07T05:24:26;66.00;;;25.52;;
42124;SDS011;27787;44.594;11.046;2022-12-07T05:27:10;58.60;;;23.70;;
42124;SDS011;27787;44.594;11.046;2022-12-07T05:29:54;62.45;;;22.98;;
42124;SDS011;27787;44.594;11.046;2022-12-07T05:32:38;68.53;;;25.63;;
42124;SDS011;27787;44.594;11.046;2022-12-07T05:35:23;67.45;;;25.27;;
42124;SDS011;27787;44.594;11.046;2022-12-07T05:38:07;64.45;;;25.45;;
42124;SDS011;27787;44.594;11.046;2022-12-07T05:40:51;66.63;;;24.63;;
42124;SDS011;27787;44.594;11.046;2022-12-07T05:43:35;69.93;;;25.55;;
42124;SDS011;27787;44.594;11.046;2022-12-07T05:46:19;61.38;;;25.98;;
42124;SDS011;27787;44.594;11.046;2022-12-07T05:49:03;62.55;;;23.70;;
42124;SDS011;27787;44.594;11.046;2022-12-07T05:51:48;62.70;;;24.88;;
42124;SDS011;27787;44.594;11.046;2022-12-07T05:54:32;71.72;;;24.27;;
42124;SDS011;27787;44.594;11.046;2022-12-07T05:57:17;61.92;;;24.38;;
42124;SDS011;27787;44.594;11.046;2022-12-07T06:00:02;63.20;;;23.35;;
42124;SDS011;27787;44.594;11.046;2022-12-07T06:02:56;64.95;;;24.50;;
42124;SDS011;27787;44.594;11.046;2022-12-07T06:05:40;62.08;;;23.20;;
42124;SDS011;27787;44.594;11.046;2022-12-07T06:08:25;56.25;;;22.40;;
42124;SDS011;27787;44.594;11.046;2022-12-07T06:11:09;67.03;;;24.23;;
42124;SDS011;27787;44.594;11.046;2022-12-07T06:14:12;55.42;;;23.33;;
42124;SDS011;27787;44.594;11.046;2022-12-07T06:16:57;55.88;;;23.38;;
42124;SDS011;27787;44.594;11.046;2022-12-07T06:19:42;61.33;;;23.60;;
42124;SDS011;27787;44.594;11.046;2022-12-07T06:22:26;56.83;;;22.70;;
42124;SDS011;27787;44.594;11.046;2022-12-07T06:25:11;55.70;;;23.02;;
42124;SDS011;27787;44.594;11.046;2022-12-07T06:27:55;54.67;;;23.25;;
42124;SDS011;27787;44.594;11.046;2022-12-07T06:30:39;51.92;;;22.55;;
42124;SDS011;27787;44.594;11.046;2022-12-07T06:33:24;60.08;;;23.95;;
42124;SDS011;27787;44.594;11.046;2022-12-07T06:36:08;53.13;;;22.73;;
42124;SDS011;27787;44.594;11.046;2022-12-07T06:38:53;63.95;;;24.08;;
42124;SDS011;27787;44.594;11.046;2022-12-07T06:41:38;61.40;;;22.90;;
42124;SDS011;27787;44.594;11.046;2022-12-07T06:44:23;56.92;;;22.52;;
42124;SDS011;27787;44.594;11.046;2022-12-07T06:47:07;51.20;;;21.08;;
42124;SDS011;27787;44.594;11.046;2022-12-07T06:49:53;45.63;;;20.73;;
42124;SDS011;27787;44.594;11.046;2022-12-07T06:52:37;50.70;;;21.25;;
42124;SDS011;27787;44.594;11.046;2022-12-07T06:55:22;44.50;;;19.48;;
42124;SDS011;27787;44.594;11.046;2022-12-07T06:58:06;46.67;;;19.45;;
42124;SDS011;27787;44.594;11.046;2022-12-07T07:00:50;44.83;;;19.55;;
42124;SDS011;27787;44.594;11.046;2022-12-07T07:03:34;45.33;;;20.10;;
42124;SDS011;27787;44.594;11.046;2022-12-07T07:06:18;43.17;;;17.65;;
42124;SDS011;27787;44.594;11.046;2022-12-07T07:09:02;43.45;;;18.85;;
42124;SDS011;27787;44.594;11.046;2022-12-07T07:11:47;39.38;;;17.17;;
42124;SDS011;27787;44.594;11.046;2022-12-07T07:14:31;46.97;;;19.17;;
42124;SDS011;27787;44.594;11.046;2022-12-07T07:17:16;35.85;;;16.80;;
42124;SDS011;27787;44.594;11.046;2022-12-07T07:20:00;42.65;;;18.35;;
42124;SDS011;27787;44.594;11.046;2022-12-07T07:22:44;40.25;;;18.48;;
42124;SDS011;27787;44.594;11.046;2022-12-07T07:25:29;49.17;;;20.60;;
42124;SDS011;27787;44.594;11.046;2022-12-07T07:28:13;45.55;;;19.33;;
42124;SDS011;27787;44.594;11.046;2022-12-07T07:30:58;42.97;;;18.63;;
42124;SDS011;27787;44.594;11.046;2022-12-07T07:33:42;39.20;;;17.88;;
42124;SDS011;27787;44.594;11.046;2022-12-07T07:36:28;42.17;;;19.13;;
42124;SDS011;27787;44.594;11.046;2022-12-07T07:39:12;38.88;;;17.25;;
42124;SDS011;27787;44.594;11.046;2022-12-07T07:41:56;41.72;;;19.08;;
42124;SDS011;27787;44.594;11.046;2022-12-07T07:44:44;42.67;;;20.13;;
42124;SDS011;27787;44.594;11.046;2022-12-07T07:47:28;36.70;;;18.98;;
42124;SDS011;27787;44.594;11.046;2022-12-07T07:50:12;39.45;;;17.98;;
42124;SDS011;27787;44.594;11.046;2022-12-07T07:52:57;42.15;;;18.40;;
42124;SDS011;27787;44.594;11.046;2022-12-07T07:55:49;36.72;;;18.52;;
42124;SDS011;27787;44.594;11.046;2022-12-07T07:58:34;36.90;;;18.08;;
42124;SDS011;27787;44.594;11.046;2022-12-07T08:01:19;38.30;;;17.98;;
42124;SDS011;27787;44.594;11.046;2022-12-07T08:04:03;40.08;;;19.15;;
42124;SDS011;27787;44.594;11.046;2022-12-07T08:06:47;39.38;;;17.75;;
42124;SDS011;27787;44.594;11.046;2022-12-07T08:09:32;33.95;;;16.52;;
42124;SDS011;27787;44.594;11.046;2022-12-07T08:12:16;38.05;;;18.00;;
42124;SDS011;27787;44.594;11.046;2022-12-07T08:15:00;39.33;;;18.13;;
42124;SDS011;27787;44.594;11.046;2022-12-07T08:17:44;39.25;;;17.10;;
42124;SDS011;27787;44.594;11.046;2022-12-07T08:20:29;35.55;;;17.88;;
42124;SDS011;27787;44.594;11.046;2022-12-07T08:23:16;41.33;;;18.70;;
42124;SDS011;27787;44.594;11.046;2022-12-07T08:26:01;41.20;;;18.67;;
42124;SDS011;27787;44.594;11.046;2022-12-07T08:31:30;41.45;;;18.98;;
42124;SDS011;27787;44.594;11.046;2022-12-07T08:34:15;46.83;;;23.10;;
42124;SDS011;27787;44.594;11.046;2022-12-07T08:36:59;47.70;;;23.38;;
42124;SDS011;27787;44.594;11.046;2022-12-07T08:39:43;49.35;;;23.73;;
42124;SDS011;27787;44.594;11.046;2022-12-07T08:42:27;48.25;;;22.40;;
42124;SDS011;27787;44.594;11.046;2022-12-07T08:45:14;48.72;;;23.67;;
42124;SDS011;27787;44.594;11.046;2022-12-07T08:48:06;46.35;;;22.75;;
42124;SDS011;27787;44.594;11.046;2022-12-07T08:50:55;49.03;;;22.52;;
42124;SDS011;27787;44.594;11.046;2022-12-07T08:53:40;42.20;;;20.75;;
42124;SDS011;27787;44.594;11.046;2022-12-07T08:56:25;50.97;;;24.80;;
42124;SDS011;27787;44.594;11.046;2022-12-07T08:59:09;49.05;;;23.23;;
42124;SDS011;27787;44.594;11.046;2022-12-07T09:01:57;49.47;;;23.45;;
42124;SDS011;27787;44.594;11.046;2022-12-07T09:04:41;54.58;;;22.55;;
42124;SDS011;27787;44.594;11.046;2022-12-07T09:07:25;46.10;;;22.23;;
42124;SDS011;27787;44.594;11.046;2022-12-07T09:10:10;44.60;;;21.70;;
42124;SDS011;27787;44.594;11.046;2022-12-07T09:12:55;44.53;;;21.23;;
42124;SDS011;27787;44.594;11.046;2022-12-07T09:15:39;53.50;;;23.27;;
42124;SDS011;27787;44.594;11.046;2022-12-07T09:18:23;47.85;;;23.25;;
42124;SDS011;27787;44.594;11.046;2022-12-07T09:21:08;43.40;;;21.50;;
42124;SDS011;27787;44.594;11.046;2022-12-07T09:23:53;52.22;;;22.92;;
42124;SDS011;27787;44.594;11.046;2022-12-07T09:26:37;47.45;;;21.45;;
42124;SDS011;27787;44.594;11.046;2022-12-07T09:29:23;47.63;;;22.92;;
42124;SDS011;27787;44.594;11.046;2022-12-07T09:32:07;46.80;;;22.17;;
42124;SDS011;27787;44.594;11.046;2022-12-07T09:34:51;48.65;;;22.58;;
42124;SDS011;27787;44.594;11.046;2022-12-07T09:37:35;50.63;;;22.95;;
42124;SDS011;27787;44.594;11.046;2022-12-07T09:40:20;48.97;;;21.75;;
42124;SDS011;27787;44.594;11.046;2022-12-07T09:43:11;43.75;;;21.30;;
42124;SDS011;27787;44.594;11.046;2022-12-07T09:46:08;51.85;;;22.02;;
42124;SDS011;27787;44.594;11.046;2022-12-07T09:48:56;51.58;;;23.45;;
42124;SDS011;27787;44.594;11.046;2022-12-07T09:51:40;45.33;;;22.40;;
42124;SDS011;27787;44.594;11.046;2022-12-07T09:54:25;49.47;;;22.00;;
42124;SDS011;27787;44.594;11.046;2022-12-07T09:57:10;45.50;;;22.13;;
42124;SDS011;27787;44.594;11.046;2022-12-07T09:59:57;45.75;;;21.75;;
42124;SDS011;27787;44.594;11.046;2022-12-07T10:02:58;47.45;;;21.77;;
42124;SDS011;27787;44.594;11.046;2022-12-07T10:05:45;48.08;;;21.30;;
42124;SDS011;27787;44.594;11.046;2022-12-07T10:08:32;47.97;;;22.40;;
42124;SDS011;27787;44.594;11.046;2022-12-07T10:11:16;49.15;;;22.90;;
42124;SDS011;27787;44.594;11.046;2022-12-07T10:14:10;44.63;;;21.13;;
42124;SDS011;27787;44.594;11.046;2022-12-07T10:16:56;41.13;;;21.40;;
42124;SDS011;27787;44.594;11.046;2022-12-07T10:19:40;48.65;;;23.98;;
42124;SDS011;27787;44.594;11.046;2022-12-07T10:22:25;53.15;;;23.98;;
42124;SDS011;27787;44.594;11.046;2022-12-07T10:25:18;52.90;;;24.13;;
42124;SDS011;27787;44.594;11.046;2022-12-07T10:31:02;47.10;;;22.92;;
42124;SDS011;27787;44.594;11.046;2022-12-07T10:33:59;43.75;;;21.67;;
42124;SDS011;27787;44.594;11.046;2022-12-07T10:36:45;49.55;;;22.77;;
42124;SDS011;27787;44.594;11.046;2022-12-07T10:39:29;50.85;;;22.98;;
42124;SDS011;27787;44.594;11.046;2022-12-07T10:42:33;48.30;;;21.80;;
42124;SDS011;27787;44.594;11.046;2022-12-07T10:45:17;54.05;;;21.90;;
42124;SDS011;27787;44.594;11.046;2022-12-07T10:48:12;45.15;;;22.20;;
42124;SDS011;27787;44.594;11.046;2022-12-07T10:51:19;50.05;;;23.73;;
42124;SDS011;27787;44.594;11.046;2022-12-07T10:54:48;46.10;;;22.90;;
42124;SDS011;27787;44.594;11.046;2022-12-07T11:00:56;43.03;;;22.25;;
42124;SDS011;27787;44.594;11.046;2022-12-07T11:09:50;46.35;;;22.55;;
42124;SDS011;27787;44.594;11.046;2022-12-07T11:15:29;43.53;;;21.98;;
42124;SDS011;27787;44.594;11.046;2022-12-07T11:18:34;45.08;;;22.15;;
42124;SDS011;27787;44.594;11.046;2022-12-07T11:24:12;40.72;;;21.00;;
42124;SDS011;27787;44.594;11.046;2022-12-07T11:30:19;41.35;;;21.13;;
42124;SDS011;27787;44.594;11.046;2022-12-07T11:33:15;37.17;;;20.00;;
42124;SDS011;27787;44.594;11.046;2022-12-07T11:39:12;38.63;;;19.40;;
42124;SDS011;27787;44.594;11.046;2022-12-07T11:42:27;47.33;;;21.63;;
42124;SDS011;27787;44.594;11.046;2022-12-07T11:45:23;40.90;;;20.52;;
42124;SDS011;27787;44.594;11.046;2022-12-07T11:48:28;45.95;;;21.95;;
42124;SDS011;27787;44.594;11.046;2022-12-07T11:51:37;43.45;;;22.27;;
42124;SDS011;27787;44.594;11.046;2022-12-07T11:54:29;46.33;;;20.73;;
42124;SDS011;27787;44.594;11.046;2022-12-07T11:57:28;39.15;;;18.92;;
42124;SDS011;27787;44.594;11.046;2022-12-07T12:00:26;41.70;;;20.40;;
42124;SDS011;27787;44.594;11.046;2022-12-07T12:03:13;41.60;;;21.02;;
42124;SDS011;27787;44.594;11.046;2022-12-07T12:06:04;43.50;;;21.50;;
42124;SDS011;27787;44.594;11.046;2022-12-07T12:08:58;38.93;;;20.10;;
42124;SDS011;27787;44.594;11.046;2022-12-07T12:15:00;42.13;;;20.30;;
42124;SDS011;27787;44.594;11.046;2022-12-07T12:18:02;44.30;;;21.60;;
42124;SDS011;27787;44.594;11.046;2022-12-07T12:21:00;40.90;;;19.95;;
42124;SDS011;27787;44.594;11.046;2022-12-07T12:23:56;43.03;;;20.48;;
42124;SDS011;27787;44.594;11.046;2022-12-07T12:27:04;41.08;;;19.48;;
42124;SDS011;27787;44.594;11.046;2022-12-07T12:29:56;43.35;;;21.55;;
42124;SDS011;27787;44.594;11.046;2022-12-07T12:32:43;41.63;;;19.60;;
42124;SDS011;27787;44.594;11.046;2022-12-07T12:38:29;37.88;;;20.45;;
42124;SDS011;27787;44.594;11.046;2022-12-07T12:50:30;42.83;;;19.65;;
42124;SDS011;27787;44.594;11.046;2022-12-07T12:59:32;36.92;;;19.00;;
42124;SDS011;27787;44.594;11.046;2022-12-07T13:10:42;36.47;;;19.35;;
42124;SDS011;27787;44.594;11.046;2022-12-07T13:13:30;43.20;;;20.27;;
42124;SDS011;27787;44.594;11.046;2022-12-07T13:19:00;38.13;;;19.95;;
42124;SDS011;27787;44.594;11.046;2022-12-07T13:21:45;38.47;;;20.70;;
42124;SDS011;27787;44.594;11.046;2022-12-07T13:24:29;38.47;;;19.33;;
42124;SDS011;27787;44.594;11.046;2022-12-07T13:27:15;36.90;;;18.80;;
42124;SDS011;27787;44.594;11.046;2022-12-07T13:30:01;36.05;;;18.63;;
42124;SDS011;27787;44.594;11.046;2022-12-07T13:32:52;45.88;;;19.60;;
42124;SDS011;27787;44.594;11.046;2022-12-07T13:35:39;37.65;;;19.15;;
42124;SDS011;27787;44.594;11.046;2022-12-07T13:38:28;47.45;;;22.17;;
42124;SDS011;27787;44.594;11.046;2022-12-07T13:41:15;40.53;;;19.35;;
42124;SDS011;27787;44.594;11.046;2022-12-07T13:44:12;40.17;;;19.77;;
42124;SDS011;27787;44.594;11.046;2022-12-07T13:47:15;38.47;;;19.10;;
42124;SDS011;27787;44.594;11.046;2022-12-07T13:50:23;38.03;;;19.63;;
42124;SDS011;27787;44.594;11.046;2022-12-07T13:53:12;39.03;;;20.05;;
42124;SDS011;27787;44.594;11.046;2022-12-07T13:55:58;42.28;;;19.70;;
42124;SDS011;27787;44.594;11.046;2022-12-07T13:58:44;39.58;;;20.35;;
42124;SDS011;27787;44.594;11.046;2022-12-07T14:01:30;39.13;;;19.42;;
42124;SDS011;27787;44.594;11.046;2022-12-07T14:04:32;41.80;;;19.75;;
42124;SDS011;27787;44.594;11.046;2022-12-07T14:07:25;36.97;;;19.98;;
42124;SDS011;27787;44.594;11.046;2022-12-07T14:16:29;37.63;;;20.30;;
42124;SDS011;27787;44.594;11.046;2022-12-07T14:25:22;39.08;;;19.67;;
42124;SDS011;27787;44.594;11.046;2022-12-07T14:28:09;38.42;;;19.60;;
42124;SDS011;27787;44.594;11.046;2022-12-07T14:31:12;39.67;;;20.02;;
42124;SDS011;27787;44.594;11.046;2022-12-07T14:34:01;43.75;;;20.77;;
42124;SDS011;27787;44.594;11.046;2022-12-07T14:36:46;34.83;;;19.10;;
42124;SDS011;27787;44.594;11.046;2022-12-07T14:39:30;36.80;;;19.85;;
42124;SDS011;27787;44.594;11.046;2022-12-07T14:42:15;40.85;;;19.13;;
42124;SDS011;27787;44.594;11.046;2022-12-07T14:44:59;42.30;;;20.88;;
42124;SDS011;27787;44.594;11.046;2022-12-07T14:47:44;36.80;;;19.33;;
42124;SDS011;27787;44.594;11.046;2022-12-07T14:50:29;38.42;;;20.25;;
42124;SDS011;27787;44.594;11.046;2022-12-07T14:53:17;35.83;;;18.90;;
42124;SDS011;27787;44.594;11.046;2022-12-07T14:56:05;37.47;;;18.85;;
42124;SDS011;27787;44.594;11.046;2022-12-07T14:58:50;35.28;;;18.75;;
42124;SDS011;27787;44.594;11.046;2022-12-07T15:01:34;37.30;;;20.38;;
42124;SDS011;27787;44.594;11.046;2022-12-07T15:04:18;36.28;;;19.85;;
42124;SDS011;27787;44.594;11.046;2022-12-07T15:07:03;38.70;;;20.13;;
42124;SDS011;27787;44.594;11.046;2022-12-07T15:09:49;39.60;;;19.83;;
42124;SDS011;27787;44.594;11.046;2022-12-07T15:12:33;38.80;;;18.80;;
42124;SDS011;27787;44.594;11.046;2022-12-07T15:15:17;38.88;;;19.40;;
42124;SDS011;27787;44.594;11.046;2022-12-07T15:18:01;38.38;;;20.98;;
42124;SDS011;27787;44.594;11.046;2022-12-07T15:20:45;44.42;;;21.50;;
42124;SDS011;27787;44.594;11.046;2022-12-07T15:23:29;43.45;;;22.08;;
42124;SDS011;27787;44.594;11.046;2022-12-07T15:26:14;37.97;;;20.17;;
42124;SDS011;27787;44.594;11.046;2022-12-07T15:28:59;38.75;;;18.85;;
42124;SDS011;27787;44.594;11.046;2022-12-07T15:31:43;48.42;;;20.02;;
42124;SDS011;27787;44.594;11.046;2022-12-07T15:34:28;38.50;;;19.25;;
42124;SDS011;27787;44.594;11.046;2022-12-07T15:37:14;37.67;;;20.75;;
42124;SDS011;27787;44.594;11.046;2022-12-07T15:39:58;39.47;;;19.23;;
42124;SDS011;27787;44.594;11.046;2022-12-07T15:42:42;36.05;;;19.73;;
42124;SDS011;27787;44.594;11.046;2022-12-07T15:45:27;36.00;;;17.90;;
42124;SDS011;27787;44.594;11.046;2022-12-07T15:48:11;35.95;;;18.15;;
42124;SDS011;27787;44.594;11.046;2022-12-07T15:51:03;31.35;;;17.27;;
42124;SDS011;27787;44.594;11.046;2022-12-07T15:53:51;35.28;;;18.02;;
42124;SDS011;27787;44.594;11.046;2022-12-07T15:56:36;33.85;;;17.30;;
42124;SDS011;27787;44.594;11.046;2022-12-07T15:59:20;34.15;;;19.15;;
42124;SDS011;27787;44.594;11.046;2022-12-07T16:02:05;37.70;;;18.52;;
42124;SDS011;27787;44.594;11.046;2022-12-07T16:04:49;35.40;;;17.10;;
42124;SDS011;27787;44.594;11.046;2022-12-07T16:07:34;34.27;;;18.70;;
42124;SDS011;27787;44.594;11.046;2022-12-07T16:10:18;34.72;;;17.52;;
42124;SDS011;27787;44.594;11.046;2022-12-07T16:13:03;36.75;;;16.85;;
42124;SDS011;27787;44.594;11.046;2022-12-07T16:15:47;41.53;;;17.63;;
42124;SDS011;27787;44.594;11.046;2022-12-07T16:18:32;33.65;;;16.85;;
42124;SDS011;27787;44.594;11.046;2022-12-07T16:21:16;30.38;;;15.95;;
42124;SDS011;27787;44.594;11.046;2022-12-07T16:24:01;34.33;;;16.97;;
42124;SDS011;27787;44.594;11.046;2022-12-07T16:26:46;33.10;;;16.05;;
42124;SDS011;27787;44.594;11.046;2022-12-07T16:29:30;31.77;;;16.35;;
42124;SDS011;27787;44.594;11.046;2022-12-07T16:32:14;33.75;;;17.02;;
42124;SDS011;27787;44.594;11.046;2022-12-07T16:34:58;34.08;;;17.63;;
42124;SDS011;27787;44.594;11.046;2022-12-07T16:37:43;35.38;;;17.13;;
42124;SDS011;27787;44.594;11.046;2022-12-07T16:40:27;39.35;;;19.02;;
42124;SDS011;27787;44.594;11.046;2022-12-07T16:43:12;33.85;;;17.55;;
42124;SDS011;27787;44.594;11.046;2022-12-07T16:48:41;37.42;;;19.13;;
42124;SDS011;27787;44.594;11.046;2022-12-07T16:51:26;45.55;;;19.48;;
42124;SDS011;27787;44.594;11.046;2022-12-07T16:54:11;43.40;;;21.27;;
42124;SDS011;27787;44.594;11.046;2022-12-07T16:56:56;47.13;;;20.80;;
42124;SDS011;27787;44.594;11.046;2022-12-07T16:59:40;39.97;;;20.65;;
42124;SDS011;27787;44.594;11.046;2022-12-07T17:02:24;43.83;;;21.02;;
42124;SDS011;27787;44.594;11.046;2022-12-07T17:05:09;39.50;;;18.95;;
42124;SDS011;27787;44.594;11.046;2022-12-07T17:07:53;45.78;;;21.23;;
42124;SDS011;27787;44.594;11.046;2022-12-07T17:10:40;40.50;;;18.98;;
42124;SDS011;27787;44.594;11.046;2022-12-07T17:13:26;45.95;;;21.38;;
42124;SDS011;27787;44.594;11.046;2022-12-07T17:16:30;42.20;;;19.95;;
42124;SDS011;27787;44.594;11.046;2022-12-07T17:19:15;42.10;;;20.50;;
42124;SDS011;27787;44.594;11.046;2022-12-07T17:22:02;49.67;;;24.83;;
42124;SDS011;27787;44.594;11.046;2022-12-07T17:24:46;44.22;;;20.77;;
42124;SDS011;27787;44.594;11.046;2022-12-07T17:27:30;47.33;;;23.73;;
42124;SDS011;27787;44.594;11.046;2022-12-07T17:30:15;49.43;;;21.90;;
42124;SDS011;27787;44.594;11.046;2022-12-07T17:33:00;44.38;;;21.55;;
42124;SDS011;27787;44.594;11.046;2022-12-07T17:35:43;54.70;;;23.67;;
42124;SDS011;27787;44.594;11.046;2022-12-07T17:38:29;41.60;;;21.27;;
42124;SDS011;27787;44.594;11.046;2022-12-07T17:41:13;43.78;;;20.80;;
42124;SDS011;27787;44.594;11.046;2022-12-07T17:44:24;47.42;;;21.88;;
42124;SDS011;27787;44.594;11.046;2022-12-07T17:47:08;48.15;;;22.65;;
42124;SDS011;27787;44.594;11.046;2022-12-07T17:49:53;46.10;;;21.65;;
42124;SDS011;27787;44.594;11.046;2022-12-07T17:52:39;43.17;;;21.48;;